sensor_id;sensor_type;location;lat;lon;timestamp;temperature;humidity
67759;SHT31;54562;47.620;18.786;2023-04-24T00:04:27;15.92;46.45
67759;SHT31;54562;47.620;18.786;2023-04-24T00:07:35;15.94;46.51
67759;SHT31;54562;47.620;18.786;2023-04-24T00:10:41;15.91;46.68
67759;SHT31;54562;47.620;18.786;2023-04-24T00:13:48;15.84;46.67
67759;SHT31;54562;47.620;18.786;2023-04-24T00:17:16;15.78;46.94
67759;SHT31;54562;47.620;18.786;2023-04-24T00:20:36;15.69;47.03
67759;SHT31;54562;47.620;18.786;2023-04-24T00:23:43;15.62;47.11
67759;SHT31;54562;47.620;18.786;2023-04-24T00:26:52;15.53;47.55
67759;SHT31;54562;47.620;18.786;2023-04-24T00:30:00;15.43;47.89
67759;SHT31;54562;47.620;18.786;2023-04-24T00:33:09;15.32;48.28
67759;SHT31;54562;47.620;18.786;2023-04-24T00:36:16;15.19;48.70
67759;SHT31;54562;47.620;18.786;2023-04-24T00:39:25;15.06;49.22
67759;SHT31;54562;47.620;18.786;2023-04-24T00:42:47;14.92;49.61
67759;SHT31;54562;47.620;18.786;2023-04-24T00:45:55;14.81;50.10
67759;SHT31;54562;47.620;18.786;2023-04-24T00:49:02;14.72;50.45
67759;SHT31;54562;47.620;18.786;2023-04-24T00:52:11;14.63;50.47
67759;SHT31;54562;47.620;18.786;2023-04-24T00:55:21;14.56;50.72
67759;SHT31;54562;47.620;18.786;2023-04-24T00:58:28;14.50;50.91
67759;SHT31;54562;47.620;18.786;2023-04-24T01:01:35;14.46;51.11
67759;SHT31;54562;47.620;18.786;2023-04-24T01:04:45;14.43;51.30
67759;SHT31;54562;47.620;18.786;2023-04-24T01:07:52;14.40;51.36
67759;SHT31;54562;47.620;18.786;2023-04-24T01:10:59;14.41;51.08
67759;SHT31;54562;47.620;18.786;2023-04-24T01:14:08;14.46;51.33
67759;SHT31;54562;47.620;18.786;2023-04-24T01:17:17;14.47;52.50
67759;SHT31;54562;47.620;18.786;2023-04-24T01:20:23;14.44;53.06
67759;SHT31;54562;47.620;18.786;2023-04-24T01:23:32;14.39;52.92
67759;SHT31;54562;47.620;18.786;2023-04-24T01:26:39;14.43;52.76
67759;SHT31;54562;47.620;18.786;2023-04-24T01:29:45;14.47;52.87
67759;SHT31;54562;47.620;18.786;2023-04-24T01:32:55;14.47;52.83
67759;SHT31;54562;47.620;18.786;2023-04-24T01:36:03;14.49;52.55
67759;SHT31;54562;47.620;18.786;2023-04-24T01:39:10;14.52;52.72
67759;SHT31;54562;47.620;18.786;2023-04-24T01:42:23;14.52;52.93
67759;SHT31;54562;47.620;18.786;2023-04-24T01:45:30;14.49;53.11
67759;SHT31;54562;47.620;18.786;2023-04-24T01:48:36;14.44;53.29
67759;SHT31;54562;47.620;18.786;2023-04-24T01:51:43;14.40;53.63
67759;SHT31;54562;47.620;18.786;2023-04-24T01:54:49;14.36;54.19
67759;SHT31;54562;47.620;18.786;2023-04-24T01:57:56;14.29;54.47
67759;SHT31;54562;47.620;18.786;2023-04-24T02:01:05;14.25;54.61
67759;SHT31;54562;47.620;18.786;2023-04-24T02:04:12;14.22;54.73
67759;SHT31;54562;47.620;18.786;2023-04-24T02:07:19;14.21;55.03
67759;SHT31;54562;47.620;18.786;2023-04-24T02:10:25;14.20;54.72
67759;SHT31;54562;47.620;18.786;2023-04-24T02:13:32;14.11;54.69
67759;SHT31;54562;47.620;18.786;2023-04-24T02:16:38;14.00;54.99
67759;SHT31;54562;47.620;18.786;2023-04-24T02:19:45;13.90;55.32
67759;SHT31;54562;47.620;18.786;2023-04-24T02:22:52;13.80;56.13
67759;SHT31;54562;47.620;18.786;2023-04-24T02:25:58;13.74;56.73
67759;SHT31;54562;47.620;18.786;2023-04-24T02:29:04;13.68;57.13
67759;SHT31;54562;47.620;18.786;2023-04-24T02:32:11;13.62;57.50
67759;SHT31;54562;47.620;18.786;2023-04-24T02:35:18;13.58;57.76
67759;SHT31;54562;47.620;18.786;2023-04-24T02:38:25;13.55;57.98
67759;SHT31;54562;47.620;18.786;2023-04-24T02:41:31;13.46;58.30
67759;SHT31;54562;47.620;18.786;2023-04-24T02:44:38;13.31;58.68
67759;SHT31;54562;47.620;18.786;2023-04-24T02:47:45;13.18;59.07
67759;SHT31;54562;47.620;18.786;2023-04-24T02:50:51;13.09;59.22
67759;SHT31;54562;47.620;18.786;2023-04-24T02:53:58;13.03;59.63
67759;SHT31;54562;47.620;18.786;2023-04-24T02:57:04;12.99;59.76
67759;SHT31;54562;47.620;18.786;2023-04-24T03:00:11;12.96;60.17
67759;SHT31;54562;47.620;18.786;2023-04-24T03:03:19;12.91;60.61
67759;SHT31;54562;47.620;18.786;2023-04-24T03:06:25;12.87;61.19
67759;SHT31;54562;47.620;18.786;2023-04-24T03:09:31;12.83;61.48
67759;SHT31;54562;47.620;18.786;2023-04-24T03:12:38;12.79;61.47
67759;SHT31;54562;47.620;18.786;2023-04-24T03:15:44;12.75;62.04
67759;SHT31;54562;47.620;18.786;2023-04-24T03:18:50;12.69;62.67
67759;SHT31;54562;47.620;18.786;2023-04-24T03:21:57;12.62;62.89
67759;SHT31;54562;47.620;18.786;2023-04-24T03:25:03;12.54;63.04
67759;SHT31;54562;47.620;18.786;2023-04-24T03:28:18;12.48;63.40
67759;SHT31;54562;47.620;18.786;2023-04-24T03:31:24;12.46;63.63
67759;SHT31;54562;47.620;18.786;2023-04-24T03:34:30;12.42;63.78
67759;SHT31;54562;47.620;18.786;2023-04-24T03:37:36;12.37;63.95
67759;SHT31;54562;47.620;18.786;2023-04-24T03:40:43;12.36;64.06
67759;SHT31;54562;47.620;18.786;2023-04-24T03:43:49;12.35;64.43
67759;SHT31;54562;47.620;18.786;2023-04-24T03:46:57;12.34;64.38
67759;SHT31;54562;47.620;18.786;2023-04-24T03:50:04;12.33;64.63
67759;SHT31;54562;47.620;18.786;2023-04-24T03:53:14;12.33;64.90
67759;SHT31;54562;47.620;18.786;2023-04-24T03:56:20;12.31;64.69
67759;SHT31;54562;47.620;18.786;2023-04-24T03:59:26;12.29;64.85
67759;SHT31;54562;47.620;18.786;2023-04-24T04:02:33;12.29;64.99
67759;SHT31;54562;47.620;18.786;2023-04-24T04:05:40;12.26;65.38
67759;SHT31;54562;47.620;18.786;2023-04-24T04:08:46;12.24;65.66
67759;SHT31;54562;47.620;18.786;2023-04-24T04:11:52;12.22;65.49
67759;SHT31;54562;47.620;18.786;2023-04-24T04:14:59;12.23;65.63
67759;SHT31;54562;47.620;18.786;2023-04-24T04:18:05;12.25;65.72
67759;SHT31;54562;47.620;18.786;2023-04-24T04:21:12;12.29;65.49
67759;SHT31;54562;47.620;18.786;2023-04-24T04:24:19;12.38;65.21
67759;SHT31;54562;47.620;18.786;2023-04-24T04:27:27;12.52;65.18
67759;SHT31;54562;47.620;18.786;2023-04-24T04:30:35;12.57;65.10
67759;SHT31;54562;47.620;18.786;2023-04-24T04:33:41;12.57;64.84
67759;SHT31;54562;47.620;18.786;2023-04-24T04:36:48;12.57;64.85
67759;SHT31;54562;47.620;18.786;2023-04-24T04:39:54;12.57;65.05
67759;SHT31;54562;47.620;18.786;2023-04-24T04:43:02;12.53;65.21
67759;SHT31;54562;47.620;18.786;2023-04-24T04:46:09;12.49;65.28
67759;SHT31;54562;47.620;18.786;2023-04-24T04:49:16;12.47;65.57
67759;SHT31;54562;47.620;18.786;2023-04-24T04:52:24;12.47;65.43
67759;SHT31;54562;47.620;18.786;2023-04-24T04:55:31;12.51;65.58
67759;SHT31;54562;47.620;18.786;2023-04-24T04:58:37;12.54;65.86
67759;SHT31;54562;47.620;18.786;2023-04-24T05:01:47;12.58;65.78
67759;SHT31;54562;47.620;18.786;2023-04-24T05:04:52;12.58;66.15
67759;SHT31;54562;47.620;18.786;2023-04-24T05:07:59;12.59;65.96
67759;SHT31;54562;47.620;18.786;2023-04-24T05:14:11;12.63;66.45
67759;SHT31;54562;47.620;18.786;2023-04-24T05:17:18;12.63;66.76
67759;SHT31;54562;47.620;18.786;2023-04-24T05:20:24;12.62;66.77
67759;SHT31;54562;47.620;18.786;2023-04-24T05:23:30;12.64;66.78
67759;SHT31;54562;47.620;18.786;2023-04-24T05:26:37;12.66;66.61
67759;SHT31;54562;47.620;18.786;2023-04-24T05:29:44;12.73;66.63
67759;SHT31;54562;47.620;18.786;2023-04-24T05:32:50;12.78;66.63
67759;SHT31;54562;47.620;18.786;2023-04-24T05:35:56;12.83;66.81
67759;SHT31;54562;47.620;18.786;2023-04-24T05:39:02;12.87;66.65
67759;SHT31;54562;47.620;18.786;2023-04-24T05:42:10;12.91;66.74
67759;SHT31;54562;47.620;18.786;2023-04-24T05:45:16;12.96;66.82
67759;SHT31;54562;47.620;18.786;2023-04-24T05:48:25;13.01;67.12
67759;SHT31;54562;47.620;18.786;2023-04-24T05:51:41;13.08;66.98
67759;SHT31;54562;47.620;18.786;2023-04-24T05:54:48;13.13;67.04
67759;SHT31;54562;47.620;18.786;2023-04-24T05:57:54;13.16;67.00
67759;SHT31;54562;47.620;18.786;2023-04-24T06:01:01;13.18;67.18
67759;SHT31;54562;47.620;18.786;2023-04-24T06:04:07;13.22;66.93
67759;SHT31;54562;47.620;18.786;2023-04-24T06:07:13;13.28;66.74
67759;SHT31;54562;47.620;18.786;2023-04-24T06:10:19;13.34;67.28
67759;SHT31;54562;47.620;18.786;2023-04-24T06:13:26;13.41;67.06
67759;SHT31;54562;47.620;18.786;2023-04-24T06:16:32;13.52;66.87
67759;SHT31;54562;47.620;18.786;2023-04-24T06:19:38;13.65;66.33
67759;SHT31;54562;47.620;18.786;2023-04-24T06:22:45;13.81;65.93
67759;SHT31;54562;47.620;18.786;2023-04-24T06:25:51;13.95;65.66
67759;SHT31;54562;47.620;18.786;2023-04-24T06:28:57;14.06;65.42
67759;SHT31;54562;47.620;18.786;2023-04-24T06:32:04;14.14;65.49
67759;SHT31;54562;47.620;18.786;2023-04-24T06:35:10;14.21;64.94
67759;SHT31;54562;47.620;18.786;2023-04-24T06:38:17;14.27;64.77
67759;SHT31;54562;47.620;18.786;2023-04-24T06:41:24;14.38;64.72
67759;SHT31;54562;47.620;18.786;2023-04-24T06:44:30;14.45;64.29
67759;SHT31;54562;47.620;18.786;2023-04-24T06:47:40;14.53;64.17
67759;SHT31;54562;47.620;18.786;2023-04-24T06:50:47;14.67;64.32
67759;SHT31;54562;47.620;18.786;2023-04-24T06:53:54;14.84;63.88
67759;SHT31;54562;47.620;18.786;2023-04-24T06:57:01;14.94;63.18
67759;SHT31;54562;47.620;18.786;2023-04-24T07:00:08;15.04;63.30
67759;SHT31;54562;47.620;18.786;2023-04-24T07:03:16;15.19;63.19
67759;SHT31;54562;47.620;18.786;2023-04-24T07:06:23;15.41;63.05
67759;SHT31;54562;47.620;18.786;2023-04-24T07:09:30;15.56;62.15
67759;SHT31;54562;47.620;18.786;2023-04-24T07:12:40;15.62;61.57
67759;SHT31;54562;47.620;18.786;2023-04-24T07:15:48;15.66;61.43
67759;SHT31;54562;47.620;18.786;2023-04-24T07:18:57;15.72;61.68
67759;SHT31;54562;47.620;18.786;2023-04-24T07:22:04;15.86;61.60
67759;SHT31;54562;47.620;18.786;2023-04-24T07:25:11;16.03;61.30
67759;SHT31;54562;47.620;18.786;2023-04-24T07:28:17;16.15;60.97
67759;SHT31;54562;47.620;18.786;2023-04-24T07:31:24;16.18;60.81
67759;SHT31;54562;47.620;18.786;2023-04-24T07:34:33;16.18;60.68
67759;SHT31;54562;47.620;18.786;2023-04-24T07:37:40;16.18;60.67
67759;SHT31;54562;47.620;18.786;2023-04-24T07:40:49;16.16;60.29
67759;SHT31;54562;47.620;18.786;2023-04-24T07:43:58;16.21;60.88
67759;SHT31;54562;47.620;18.786;2023-04-24T07:47:04;16.21;60.72
67759;SHT31;54562;47.620;18.786;2023-04-24T07:50:12;16.11;60.53
67759;SHT31;54562;47.620;18.786;2023-04-24T07:53:19;16.02;61.13
67759;SHT31;54562;47.620;18.786;2023-04-24T07:56:25;16.07;61.47
67759;SHT31;54562;47.620;18.786;2023-04-24T07:59:34;16.19;61.75
67759;SHT31;54562;47.620;18.786;2023-04-24T08:02:40;16.31;61.58
67759;SHT31;54562;47.620;18.786;2023-04-24T08:05:47;16.40;61.58
67759;SHT31;54562;47.620;18.786;2023-04-24T08:08:54;16.50;61.33
67759;SHT31;54562;47.620;18.786;2023-04-24T08:12:00;16.65;61.65
67759;SHT31;54562;47.620;18.786;2023-04-24T08:15:08;16.80;61.42
67759;SHT31;54562;47.620;18.786;2023-04-24T08:18:16;16.96;61.08
67759;SHT31;54562;47.620;18.786;2023-04-24T08:21:24;17.10;60.46
67759;SHT31;54562;47.620;18.786;2023-04-24T08:24:31;17.17;60.12
67759;SHT31;54562;47.620;18.786;2023-04-24T08:27:37;17.31;59.84
67759;SHT31;54562;47.620;18.786;2023-04-24T08:30:43;17.40;59.63
67759;SHT31;54562;47.620;18.786;2023-04-24T08:33:51;17.50;59.29
67759;SHT31;54562;47.620;18.786;2023-04-24T08:36:57;17.54;59.16
67759;SHT31;54562;47.620;18.786;2023-04-24T08:40:04;17.58;58.86
67759;SHT31;54562;47.620;18.786;2023-04-24T08:43:16;17.56;58.53
67759;SHT31;54562;47.620;18.786;2023-04-24T08:46:25;17.62;59.53
67759;SHT31;54562;47.620;18.786;2023-04-24T08:49:31;17.74;59.17
67759;SHT31;54562;47.620;18.786;2023-04-24T08:52:43;17.77;58.74
67759;SHT31;54562;47.620;18.786;2023-04-24T08:55:50;17.76;58.33
67759;SHT31;54562;47.620;18.786;2023-04-24T08:58:58;17.73;58.08
67759;SHT31;54562;47.620;18.786;2023-04-24T09:02:05;17.77;58.28
67759;SHT31;54562;47.620;18.786;2023-04-24T09:05:14;17.81;58.12
67759;SHT31;54562;47.620;18.786;2023-04-24T09:08:21;17.84;58.11
67759;SHT31;54562;47.620;18.786;2023-04-24T09:11:30;17.93;57.93
67759;SHT31;54562;47.620;18.786;2023-04-24T09:14:37;17.97;57.47
67759;SHT31;54562;47.620;18.786;2023-04-24T09:17:49;17.95;57.28
67759;SHT31;54562;47.620;18.786;2023-04-24T09:20:58;17.99;57.54
67759;SHT31;54562;47.620;18.786;2023-04-24T09:24:07;17.98;57.28
67759;SHT31;54562;47.620;18.786;2023-04-24T09:27:22;17.93;57.60
67759;SHT31;54562;47.620;18.786;2023-04-24T09:30:29;17.90;57.13
67759;SHT31;54562;47.620;18.786;2023-04-24T09:33:36;17.75;57.52
67759;SHT31;54562;47.620;18.786;2023-04-24T09:36:42;17.66;58.26
67759;SHT31;54562;47.620;18.786;2023-04-24T09:39:52;17.71;58.28
67759;SHT31;54562;47.620;18.786;2023-04-24T09:43:13;17.80;58.15
67759;SHT31;54562;47.620;18.786;2023-04-24T09:46:20;17.96;58.86
67759;SHT31;54562;47.620;18.786;2023-04-24T09:49:34;18.14;58.68
67759;SHT31;54562;47.620;18.786;2023-04-24T09:52:43;18.17;58.48
67759;SHT31;54562;47.620;18.786;2023-04-24T09:55:49;18.17;58.51
67759;SHT31;54562;47.620;18.786;2023-04-24T09:58:56;18.14;58.69
67759;SHT31;54562;47.620;18.786;2023-04-24T10:02:17;18.30;59.09
67759;SHT31;54562;47.620;18.786;2023-04-24T10:05:26;18.24;58.56
67759;SHT31;54562;47.620;18.786;2023-04-24T10:08:34;18.04;58.58
67759;SHT31;54562;47.620;18.786;2023-04-24T10:11:43;17.85;58.85
67759;SHT31;54562;47.620;18.786;2023-04-24T10:14:52;17.78;59.31
67759;SHT31;54562;47.620;18.786;2023-04-24T10:17:59;17.77;59.42
67759;SHT31;54562;47.620;18.786;2023-04-24T10:21:06;17.76;59.57
67759;SHT31;54562;47.620;18.786;2023-04-24T10:24:13;17.74;59.77
67759;SHT31;54562;47.620;18.786;2023-04-24T10:27:19;17.71;59.92
67759;SHT31;54562;47.620;18.786;2023-04-24T10:30:28;17.66;60.10
67759;SHT31;54562;47.620;18.786;2023-04-24T10:33:38;17.59;60.18
67759;SHT31;54562;47.620;18.786;2023-04-24T10:36:48;17.52;60.46
67759;SHT31;54562;47.620;18.786;2023-04-24T10:40:00;17.45;60.48
67759;SHT31;54562;47.620;18.786;2023-04-24T10:43:09;17.38;60.81
67759;SHT31;54562;47.620;18.786;2023-04-24T10:46:20;17.32;61.37
67759;SHT31;54562;47.620;18.786;2023-04-24T10:49:30;17.22;61.51
67759;SHT31;54562;47.620;18.786;2023-04-24T10:52:45;17.11;62.18
67759;SHT31;54562;47.620;18.786;2023-04-24T10:55:59;17.01;62.94
67759;SHT31;54562;47.620;18.786;2023-04-24T10:59:08;16.94;63.67
67759;SHT31;54562;47.620;18.786;2023-04-24T11:02:15;16.90;63.64
67759;SHT31;54562;47.620;18.786;2023-04-24T11:05:22;16.93;63.58
67759;SHT31;54562;47.620;18.786;2023-04-24T11:08:48;17.02;63.33
67759;SHT31;54562;47.620;18.786;2023-04-24T11:12:03;17.14;63.24
67759;SHT31;54562;47.620;18.786;2023-04-24T11:15:12;17.27;62.97
67759;SHT31;54562;47.620;18.786;2023-04-24T11:18:22;17.37;62.37
67759;SHT31;54562;47.620;18.786;2023-04-24T11:21:32;17.47;62.41
67759;SHT31;54562;47.620;18.786;2023-04-24T11:24:50;17.56;61.81
67759;SHT31;54562;47.620;18.786;2023-04-24T11:28:04;17.62;61.67
67759;SHT31;54562;47.620;18.786;2023-04-24T11:34:46;17.84;59.83
67759;SHT31;54562;47.620;18.786;2023-04-24T11:37:54;17.95;59.11
67759;SHT31;54562;47.620;18.786;2023-04-24T11:41:04;18.04;58.48
67759;SHT31;54562;47.620;18.786;2023-04-24T11:44:11;18.10;57.41
67759;SHT31;54562;47.620;18.786;2023-04-24T11:47:18;18.08;56.78
67759;SHT31;54562;47.620;18.786;2023-04-24T11:50:25;18.05;56.90
67759;SHT31;54562;47.620;18.786;2023-04-24T11:53:33;18.00;56.75
67759;SHT31;54562;47.620;18.786;2023-04-24T11:56:40;17.94;56.95
67759;SHT31;54562;47.620;18.786;2023-04-24T11:59:51;17.88;56.97
67759;SHT31;54562;47.620;18.786;2023-04-24T12:03:05;17.79;56.98
67759;SHT31;54562;47.620;18.786;2023-04-24T12:06:13;17.73;57.73
67759;SHT31;54562;47.620;18.786;2023-04-24T12:09:20;17.67;57.34
67759;SHT31;54562;47.620;18.786;2023-04-24T12:12:26;17.58;57.40
67759;SHT31;54562;47.620;18.786;2023-04-24T12:15:33;17.52;57.73
67759;SHT31;54562;47.620;18.786;2023-04-24T12:18:45;17.49;57.67
67759;SHT31;54562;47.620;18.786;2023-04-24T12:22:00;17.46;57.93
67759;SHT31;54562;47.620;18.786;2023-04-24T12:25:09;17.41;57.67
67759;SHT31;54562;47.620;18.786;2023-04-24T12:28:16;17.37;57.95
67759;SHT31;54562;47.620;18.786;2023-04-24T12:31:23;17.32;58.06
67759;SHT31;54562;47.620;18.786;2023-04-24T12:34:31;17.27;58.19
67759;SHT31;54562;47.620;18.786;2023-04-24T12:37:37;17.25;58.55
67759;SHT31;54562;47.620;18.786;2023-04-24T12:41:00;17.23;58.48
67759;SHT31;54562;47.620;18.786;2023-04-24T12:44:10;17.21;58.42
67759;SHT31;54562;47.620;18.786;2023-04-24T12:47:18;17.17;58.39
67759;SHT31;54562;47.620;18.786;2023-04-24T12:50:25;17.14;58.63
67759;SHT31;54562;47.620;18.786;2023-04-24T12:53:31;17.14;59.03
67759;SHT31;54562;47.620;18.786;2023-04-24T12:56:37;17.18;59.64
67759;SHT31;54562;47.620;18.786;2023-04-24T12:59:44;17.22;60.89
67759;SHT31;54562;47.620;18.786;2023-04-24T13:02:50;17.25;61.80
67759;SHT31;54562;47.620;18.786;2023-04-24T13:05:57;17.25;62.34
67759;SHT31;54562;47.620;18.786;2023-04-24T13:09:04;17.23;62.80
67759;SHT31;54562;47.620;18.786;2023-04-24T13:12:11;17.23;63.17
67759;SHT31;54562;47.620;18.786;2023-04-24T13:15:18;17.22;63.49
67759;SHT31;54562;47.620;18.786;2023-04-24T13:18:24;17.19;63.84
67759;SHT31;54562;47.620;18.786;2023-04-24T13:21:31;17.13;64.13
67759;SHT31;54562;47.620;18.786;2023-04-24T13:24:37;17.07;64.52
67759;SHT31;54562;47.620;18.786;2023-04-24T13:27:44;17.00;64.97
67759;SHT31;54562;47.620;18.786;2023-04-24T13:30:52;16.95;65.39
67759;SHT31;54562;47.620;18.786;2023-04-24T13:33:58;16.87;65.34
67759;SHT31;54562;47.620;18.786;2023-04-24T13:37:05;16.82;65.67
67759;SHT31;54562;47.620;18.786;2023-04-24T13:40:12;16.79;65.94
67759;SHT31;54562;47.620;18.786;2023-04-24T13:43:19;16.76;66.24
67759;SHT31;54562;47.620;18.786;2023-04-24T13:46:25;16.71;66.16
67759;SHT31;54562;47.620;18.786;2023-04-24T13:49:32;16.64;66.73
67759;SHT31;54562;47.620;18.786;2023-04-24T13:52:38;16.58;67.83
67759;SHT31;54562;47.620;18.786;2023-04-24T13:55:44;16.50;68.38
67759;SHT31;54562;47.620;18.786;2023-04-24T13:58:50;16.38;68.30
67759;SHT31;54562;47.620;18.786;2023-04-24T14:01:57;16.25;68.22
67759;SHT31;54562;47.620;18.786;2023-04-24T14:05:04;16.14;68.84
67759;SHT31;54562;47.620;18.786;2023-04-24T14:08:14;16.08;69.22
67759;SHT31;54562;47.620;18.786;2023-04-24T14:11:20;16.05;69.42
67759;SHT31;54562;47.620;18.786;2023-04-24T14:14:27;16.04;69.71
67759;SHT31;54562;47.620;18.786;2023-04-24T14:17:33;16.05;69.89
67759;SHT31;54562;47.620;18.786;2023-04-24T14:20:40;15.99;69.80
67759;SHT31;54562;47.620;18.786;2023-04-24T14:23:46;15.91;70.05
67759;SHT31;54562;47.620;18.786;2023-04-24T14:26:53;15.82;69.95
67759;SHT31;54562;47.620;18.786;2023-04-24T14:30:00;15.73;70.28
67759;SHT31;54562;47.620;18.786;2023-04-24T14:36:15;15.58;70.94
67759;SHT31;54562;47.620;18.786;2023-04-24T14:39:22;15.49;71.25
67759;SHT31;54562;47.620;18.786;2023-04-24T14:42:28;15.40;71.35
67759;SHT31;54562;47.620;18.786;2023-04-24T14:45:35;15.29;71.57
67759;SHT31;54562;47.620;18.786;2023-04-24T14:48:44;15.20;72.10
67759;SHT31;54562;47.620;18.786;2023-04-24T14:51:52;15.15;72.60
67759;SHT31;54562;47.620;18.786;2023-04-24T14:54:58;15.08;72.82
67759;SHT31;54562;47.620;18.786;2023-04-24T14:58:05;15.06;72.94
67759;SHT31;54562;47.620;18.786;2023-04-24T15:01:11;15.04;73.02
67759;SHT31;54562;47.620;18.786;2023-04-24T15:04:21;15.03;73.26
67759;SHT31;54562;47.620;18.786;2023-04-24T15:07:28;15.03;73.27
67759;SHT31;54562;47.620;18.786;2023-04-24T15:10:36;15.02;73.29
67759;SHT31;54562;47.620;18.786;2023-04-24T15:13:42;14.97;73.58
67759;SHT31;54562;47.620;18.786;2023-04-24T15:16:50;14.91;73.86
67759;SHT31;54562;47.620;18.786;2023-04-24T15:19:56;14.84;74.37
67759;SHT31;54562;47.620;18.786;2023-04-24T15:23:04;14.80;74.42
67759;SHT31;54562;47.620;18.786;2023-04-24T15:26:12;14.75;74.47
67759;SHT31;54562;47.620;18.786;2023-04-24T15:29:42;14.67;74.38
67759;SHT31;54562;47.620;18.786;2023-04-24T15:32:51;14.61;74.53
67759;SHT31;54562;47.620;18.786;2023-04-24T15:35:58;14.56;74.76
67759;SHT31;54562;47.620;18.786;2023-04-24T15:39:05;14.49;74.94
67759;SHT31;54562;47.620;18.786;2023-04-24T15:42:22;14.43;75.17
67759;SHT31;54562;47.620;18.786;2023-04-24T15:45:28;14.39;75.46
67759;SHT31;54562;47.620;18.786;2023-04-24T15:48:35;14.34;75.50
67759;SHT31;54562;47.620;18.786;2023-04-24T15:51:44;14.31;75.78
67759;SHT31;54562;47.620;18.786;2023-04-24T15:54:52;14.28;75.84
67759;SHT31;54562;47.620;18.786;2023-04-24T15:58:02;14.27;75.88
67759;SHT31;54562;47.620;18.786;2023-04-24T16:01:09;14.24;76.02
67759;SHT31;54562;47.620;18.786;2023-04-24T16:04:17;14.23;76.22
67759;SHT31;54562;47.620;18.786;2023-04-24T16:07:24;14.23;76.34
67759;SHT31;54562;47.620;18.786;2023-04-24T16:10:30;14.25;76.60
67759;SHT31;54562;47.620;18.786;2023-04-24T16:13:37;14.25;76.74
67759;SHT31;54562;47.620;18.786;2023-04-24T16:16:43;14.26;76.83
67759;SHT31;54562;47.620;18.786;2023-04-24T16:19:50;14.26;76.73
67759;SHT31;54562;47.620;18.786;2023-04-24T16:22:56;14.23;76.61
67759;SHT31;54562;47.620;18.786;2023-04-24T16:26:03;14.17;76.58
67759;SHT31;54562;47.620;18.786;2023-04-24T16:29:11;14.14;76.60
67759;SHT31;54562;47.620;18.786;2023-04-24T16:32:18;14.10;76.68
67759;SHT31;54562;47.620;18.786;2023-04-24T16:35:24;14.08;76.80
67759;SHT31;54562;47.620;18.786;2023-04-24T16:38:31;14.05;76.87
67759;SHT31;54562;47.620;18.786;2023-04-24T16:41:57;14.01;76.96
67759;SHT31;54562;47.620;18.786;2023-04-24T16:45:04;13.93;76.94
67759;SHT31;54562;47.620;18.786;2023-04-24T16:48:13;13.84;77.09
67759;SHT31;54562;47.620;18.786;2023-04-24T16:51:22;13.78;77.04
67759;SHT31;54562;47.620;18.786;2023-04-24T16:54:29;13.71;76.94
67759;SHT31;54562;47.620;18.786;2023-04-24T17:01:24;13.63;77.14
67759;SHT31;54562;47.620;18.786;2023-04-24T17:04:31;13.57;76.97
67759;SHT31;54562;47.620;18.786;2023-04-24T17:07:39;13.51;76.97
67759;SHT31;54562;47.620;18.786;2023-04-24T17:10:45;13.47;77.12
67759;SHT31;54562;47.620;18.786;2023-04-24T17:17:28;13.41;77.20
67759;SHT31;54562;47.620;18.786;2023-04-24T17:20:35;13.36;77.14
67759;SHT31;54562;47.620;18.786;2023-04-24T17:23:41;13.32;77.18
67759;SHT31;54562;47.620;18.786;2023-04-24T17:26:48;13.30;77.22
67759;SHT31;54562;47.620;18.786;2023-04-24T17:29:58;13.27;77.26
67759;SHT31;54562;47.620;18.786;2023-04-24T17:33:04;13.26;77.39
67759;SHT31;54562;47.620;18.786;2023-04-24T17:36:11;13.22;77.18
67759;SHT31;54562;47.620;18.786;2023-04-24T17:39:18;13.16;77.04
67759;SHT31;54562;47.620;18.786;2023-04-24T17:42:24;13.14;76.98
67759;SHT31;54562;47.620;18.786;2023-04-24T17:48:36;13.08;76.69
67759;SHT31;54562;47.620;18.786;2023-04-24T17:51:42;13.03;76.68
67759;SHT31;54562;47.620;18.786;2023-04-24T17:54:49;13.01;76.65
67759;SHT31;54562;47.620;18.786;2023-04-24T17:57:55;12.99;76.70
67759;SHT31;54562;47.620;18.786;2023-04-24T18:01:01;12.97;76.69
67759;SHT31;54562;47.620;18.786;2023-04-24T18:04:08;12.96;76.75
67759;SHT31;54562;47.620;18.786;2023-04-24T18:07:14;12.93;76.75
67759;SHT31;54562;47.620;18.786;2023-04-24T18:10:21;12.91;76.81
67759;SHT31;54562;47.620;18.786;2023-04-24T18:13:28;12.88;76.85
67759;SHT31;54562;47.620;18.786;2023-04-24T18:16:34;12.85;76.98
67759;SHT31;54562;47.620;18.786;2023-04-24T18:19:41;12.84;77.05
67759;SHT31;54562;47.620;18.786;2023-04-24T18:22:50;12.82;77.02
67759;SHT31;54562;47.620;18.786;2023-04-24T18:25:59;12.79;77.09
67759;SHT31;54562;47.620;18.786;2023-04-24T18:29:05;12.77;77.17
67759;SHT31;54562;47.620;18.786;2023-04-24T18:32:13;12.76;77.24
67759;SHT31;54562;47.620;18.786;2023-04-24T18:35:19;12.75;77.34
67759;SHT31;54562;47.620;18.786;2023-04-24T18:38:26;12.73;77.32
67759;SHT31;54562;47.620;18.786;2023-04-24T18:41:33;12.70;77.15
67759;SHT31;54562;47.620;18.786;2023-04-24T18:44:39;12.67;77.04
67759;SHT31;54562;47.620;18.786;2023-04-24T18:47:46;12.66;77.19
67759;SHT31;54562;47.620;18.786;2023-04-24T18:50:53;12.63;77.37
67759;SHT31;54562;47.620;18.786;2023-04-24T18:54:00;12.60;77.55
67759;SHT31;54562;47.620;18.786;2023-04-24T18:57:08;12.58;77.65
67759;SHT31;54562;47.620;18.786;2023-04-24T19:00:15;12.56;77.78
67759;SHT31;54562;47.620;18.786;2023-04-24T19:03:22;12.55;77.92
67759;SHT31;54562;47.620;18.786;2023-04-24T19:06:30;12.52;78.03
67759;SHT31;54562;47.620;18.786;2023-04-24T19:09:36;12.48;78.21
67759;SHT31;54562;47.620;18.786;2023-04-24T19:12:43;12.45;78.32
67759;SHT31;54562;47.620;18.786;2023-04-24T19:15:49;12.44;78.36
67759;SHT31;54562;47.620;18.786;2023-04-24T19:18:55;12.43;78.43
67759;SHT31;54562;47.620;18.786;2023-04-24T19:22:09;12.41;78.56
67759;SHT31;54562;47.620;18.786;2023-04-24T19:25:15;12.42;78.62
67759;SHT31;54562;47.620;18.786;2023-04-24T19:28:22;12.41;78.70
67759;SHT31;54562;47.620;18.786;2023-04-24T19:31:28;12.41;78.80
67759;SHT31;54562;47.620;18.786;2023-04-24T19:34:35;12.41;78.78
67759;SHT31;54562;47.620;18.786;2023-04-24T19:37:43;12.40;78.85
67759;SHT31;54562;47.620;18.786;2023-04-24T19:40:50;12.42;78.89
67759;SHT31;54562;47.620;18.786;2023-04-24T19:43:56;12.42;78.97
67759;SHT31;54562;47.620;18.786;2023-04-24T19:47:03;12.42;79.00
67759;SHT31;54562;47.620;18.786;2023-04-24T19:50:09;12.42;79.00